sensor_id;sensor_type;location;lat;lon;timestamp;temperature;humidity
25877;DHT22;13692;47.480;19.216;2023-07-22T00:00:49;18.90;99.90
25877;DHT22;13692;47.480;19.216;2023-07-22T00:03:16;18.90;99.90
25877;DHT22;13692;47.480;19.216;2023-07-22T00:05:43;18.90;99.90
25877;DHT22;13692;47.480;19.216;2023-07-22T00:08:10;18.90;99.90
25877;DHT22;13692;47.480;19.216;2023-07-22T00:10:41;18.80;99.90
25877;DHT22;13692;47.480;19.216;2023-07-22T00:13:09;18.80;99.90
25877;DHT22;13692;47.480;19.216;2023-07-22T00:15:36;18.80;99.90
25877;DHT22;13692;47.480;19.216;2023-07-22T00:18:03;18.70;99.90
25877;DHT22;13692;47.480;19.216;2023-07-22T00:20:30;18.70;99.90
25877;DHT22;13692;47.480;19.216;2023-07-22T00:22:57;18.70;99.90
25877;DHT22;13692;47.480;19.216;2023-07-22T00:25:24;18.70;99.90
25877;DHT22;13692;47.480;19.216;2023-07-22T00:27:51;18.80;99.90
25877;DHT22;13692;47.480;19.216;2023-07-22T00:30:18;18.70;99.90
25877;DHT22;13692;47.480;19.216;2023-07-22T00:32:45;18.70;99.90
25877;DHT22;13692;47.480;19.216;2023-07-22T00:35:13;18.80;99.90
25877;DHT22;13692;47.480;19.216;2023-07-22T00:37:40;18.80;99.90
25877;DHT22;13692;47.480;19.216;2023-07-22T00:40:08;18.70;99.90
25877;DHT22;13692;47.480;19.216;2023-07-22T00:42:39;18.60;99.90
25877;DHT22;13692;47.480;19.216;2023-07-22T00:45:07;18.50;99.90
25877;DHT22;13692;47.480;19.216;2023-07-22T00:47:35;18.40;99.90
25877;DHT22;13692;47.480;19.216;2023-07-22T00:50:04;18.40;99.90
25877;DHT22;13692;47.480;19.216;2023-07-22T00:52:34;18.40;99.90
25877;DHT22;13692;47.480;19.216;2023-07-22T00:55:02;18.50;99.90
25877;DHT22;13692;47.480;19.216;2023-07-22T00:57:29;18.50;99.90
25877;DHT22;13692;47.480;19.216;2023-07-22T00:59:56;18.50;99.90
25877;DHT22;13692;47.480;19.216;2023-07-22T01:02:24;18.60;99.90
25877;DHT22;13692;47.480;19.216;2023-07-22T01:04:51;18.60;99.90
25877;DHT22;13692;47.480;19.216;2023-07-22T01:07:19;18.60;99.90
25877;DHT22;13692;47.480;19.216;2023-07-22T01:09:46;18.60;99.90
25877;DHT22;13692;47.480;19.216;2023-07-22T01:12:13;18.50;99.90
25877;DHT22;13692;47.480;19.216;2023-07-22T01:14:41;18.50;99.90
25877;DHT22;13692;47.480;19.216;2023-07-22T01:17:10;18.50;99.90
25877;DHT22;13692;47.480;19.216;2023-07-22T01:19:37;18.40;99.90
25877;DHT22;13692;47.480;19.216;2023-07-22T01:22:05;18.40;99.90
25877;DHT22;13692;47.480;19.216;2023-07-22T01:24:34;18.40;99.90
25877;DHT22;13692;47.480;19.216;2023-07-22T01:27:01;18.40;99.90
25877;DHT22;13692;47.480;19.216;2023-07-22T01:29:30;18.50;99.90
25877;DHT22;13692;47.480;19.216;2023-07-22T01:31:57;18.50;99.90
25877;DHT22;13692;47.480;19.216;2023-07-22T01:34:24;18.50;99.90
25877;DHT22;13692;47.480;19.216;2023-07-22T01:36:52;18.40;99.90
25877;DHT22;13692;47.480;19.216;2023-07-22T01:39:20;18.40;99.90
25877;DHT22;13692;47.480;19.216;2023-07-22T01:41:48;18.40;99.90
25877;DHT22;13692;47.480;19.216;2023-07-22T01:44:16;18.40;99.90
25877;DHT22;13692;47.480;19.216;2023-07-22T01:46:43;18.40;99.90
25877;DHT22;13692;47.480;19.216;2023-07-22T01:49:11;18.40;99.90
25877;DHT22;13692;47.480;19.216;2023-07-22T01:51:42;18.40;99.90
25877;DHT22;13692;47.480;19.216;2023-07-22T01:54:09;18.40;99.90
25877;DHT22;13692;47.480;19.216;2023-07-22T01:56:37;18.40;99.90
25877;DHT22;13692;47.480;19.216;2023-07-22T01:59:04;18.40;99.90
25877;DHT22;13692;47.480;19.216;2023-07-22T02:01:32;18.40;99.90
25877;DHT22;13692;47.480;19.216;2023-07-22T02:03:59;18.40;99.90
25877;DHT22;13692;47.480;19.216;2023-07-22T02:06:27;18.40;99.90
25877;DHT22;13692;47.480;19.216;2023-07-22T02:08:56;18.30;99.90
25877;DHT22;13692;47.480;19.216;2023-07-22T02:11:23;18.40;99.90
25877;DHT22;13692;47.480;19.216;2023-07-22T02:13:50;18.40;99.90
25877;DHT22;13692;47.480;19.216;2023-07-22T02:16:17;18.40;99.90
25877;DHT22;13692;47.480;19.216;2023-07-22T02:18:45;18.40;99.90
25877;DHT22;13692;47.480;19.216;2023-07-22T02:21:13;18.40;99.90
25877;DHT22;13692;47.480;19.216;2023-07-22T02:23:40;18.20;99.90
25877;DHT22;13692;47.480;19.216;2023-07-22T02:26:07;18.10;99.90
25877;DHT22;13692;47.480;19.216;2023-07-22T02:28:34;18.10;99.90
25877;DHT22;13692;47.480;19.216;2023-07-22T02:31:02;18.10;99.90
25877;DHT22;13692;47.480;19.216;2023-07-22T02:33:34;18.10;99.90
25877;DHT22;13692;47.480;19.216;2023-07-22T02:36:01;18.00;99.90
25877;DHT22;13692;47.480;19.216;2023-07-22T02:38:28;18.10;99.90
25877;DHT22;13692;47.480;19.216;2023-07-22T02:41:01;18.00;99.90
25877;DHT22;13692;47.480;19.216;2023-07-22T02:43:29;18.10;99.90
25877;DHT22;13692;47.480;19.216;2023-07-22T02:46:02;18.00;99.90
25877;DHT22;13692;47.480;19.216;2023-07-22T02:48:32;17.90;99.90
25877;DHT22;13692;47.480;19.216;2023-07-22T02:51:09;18.00;99.90
25877;DHT22;13692;47.480;19.216;2023-07-22T02:53:37;17.90;99.90
25877;DHT22;13692;47.480;19.216;2023-07-22T02:56:07;18.00;99.90
25877;DHT22;13692;47.480;19.216;2023-07-22T02:58:34;17.90;99.90
25877;DHT22;13692;47.480;19.216;2023-07-22T03:01:04;17.90;99.90
25877;DHT22;13692;47.480;19.216;2023-07-22T03:03:32;17.90;99.90
25877;DHT22;13692;47.480;19.216;2023-07-22T03:06:00;17.90;99.90
25877;DHT22;13692;47.480;19.216;2023-07-22T03:08:28;17.80;99.90
25877;DHT22;13692;47.480;19.216;2023-07-22T03:10:55;17.80;99.90
25877;DHT22;13692;47.480;19.216;2023-07-22T03:13:22;17.80;99.90
25877;DHT22;13692;47.480;19.216;2023-07-22T03:15:49;17.80;99.90
25877;DHT22;13692;47.480;19.216;2023-07-22T03:18:16;17.80;99.90
25877;DHT22;13692;47.480;19.216;2023-07-22T03:20:42;17.80;99.90
25877;DHT22;13692;47.480;19.216;2023-07-22T03:23:09;17.80;99.90
25877;DHT22;13692;47.480;19.216;2023-07-22T03:25:36;17.80;99.90
25877;DHT22;13692;47.480;19.216;2023-07-22T03:28:05;17.80;99.90
25877;DHT22;13692;47.480;19.216;2023-07-22T03:30:33;17.70;99.90
25877;DHT22;13692;47.480;19.216;2023-07-22T03:33:00;17.70;99.90
25877;DHT22;13692;47.480;19.216;2023-07-22T03:35:27;17.80;99.90
25877;DHT22;13692;47.480;19.216;2023-07-22T03:37:55;17.90;99.90
25877;DHT22;13692;47.480;19.216;2023-07-22T03:40:22;17.90;99.90
25877;DHT22;13692;47.480;19.216;2023-07-22T03:42:57;17.90;99.90
25877;DHT22;13692;47.480;19.216;2023-07-22T03:45:24;17.90;99.90
25877;DHT22;13692;47.480;19.216;2023-07-22T03:47:59;18.10;99.90
25877;DHT22;13692;47.480;19.216;2023-07-22T03:50:27;18.10;99.90
25877;DHT22;13692;47.480;19.216;2023-07-22T03:52:54;18.30;99.90
25877;DHT22;13692;47.480;19.216;2023-07-22T03:55:21;18.60;99.90
25877;DHT22;13692;47.480;19.216;2023-07-22T03:57:49;19.00;99.90
25877;DHT22;13692;47.480;19.216;2023-07-22T04:00:16;19.20;99.90
25877;DHT22;13692;47.480;19.216;2023-07-22T04:02:43;19.50;99.90
25877;DHT22;13692;47.480;19.216;2023-07-22T04:05:10;19.60;99.90
25877;DHT22;13692;47.480;19.216;2023-07-22T04:07:38;19.80;99.90
25877;DHT22;13692;47.480;19.216;2023-07-22T04:10:06;19.90;99.90
25877;DHT22;13692;47.480;19.216;2023-07-22T04:12:33;20.00;99.90
25877;DHT22;13692;47.480;19.216;2023-07-22T04:15:00;20.20;99.90
25877;DHT22;13692;47.480;19.216;2023-07-22T04:17:27;20.30;99.90
25877;DHT22;13692;47.480;19.216;2023-07-22T04:19:54;20.30;99.90
25877;DHT22;13692;47.480;19.216;2023-07-22T04:22:21;20.40;99.90
25877;DHT22;13692;47.480;19.216;2023-07-22T04:24:48;20.60;99.90
25877;DHT22;13692;47.480;19.216;2023-07-22T04:27:16;20.90;99.90
25877;DHT22;13692;47.480;19.216;2023-07-22T04:29:43;21.30;99.90
25877;DHT22;13692;47.480;19.216;2023-07-22T04:32:10;21.70;99.90
25877;DHT22;13692;47.480;19.216;2023-07-22T04:34:37;22.00;99.90
25877;DHT22;13692;47.480;19.216;2023-07-22T04:37:05;22.30;99.90
25877;DHT22;13692;47.480;19.216;2023-07-22T04:39:32;22.60;99.90
25877;DHT22;13692;47.480;19.216;2023-07-22T04:41:59;22.80;99.90
25877;DHT22;13692;47.480;19.216;2023-07-22T04:44:27;23.10;99.90
25877;DHT22;13692;47.480;19.216;2023-07-22T04:46:54;23.30;99.90
25877;DHT22;13692;47.480;19.216;2023-07-22T04:49:21;23.50;99.90
25877;DHT22;13692;47.480;19.216;2023-07-22T04:51:49;23.70;99.90
25877;DHT22;13692;47.480;19.216;2023-07-22T04:54:17;23.90;99.90
25877;DHT22;13692;47.480;19.216;2023-07-22T04:56:45;24.20;99.90
25877;DHT22;13692;47.480;19.216;2023-07-22T04:59:12;24.40;99.90
25877;DHT22;13692;47.480;19.216;2023-07-22T05:01:41;24.70;99.90
25877;DHT22;13692;47.480;19.216;2023-07-22T05:04:08;24.90;99.90
25877;DHT22;13692;47.480;19.216;2023-07-22T05:06:35;25.20;99.90
25877;DHT22;13692;47.480;19.216;2023-07-22T05:09:03;25.50;99.90
25877;DHT22;13692;47.480;19.216;2023-07-22T05:11:30;25.80;99.90
25877;DHT22;13692;47.480;19.216;2023-07-22T05:13:58;26.00;99.90
25877;DHT22;13692;47.480;19.216;2023-07-22T05:16:25;26.10;99.90
25877;DHT22;13692;47.480;19.216;2023-07-22T05:18:52;26.30;99.90
25877;DHT22;13692;47.480;19.216;2023-07-22T05:21:19;26.60;99.90
25877;DHT22;13692;47.480;19.216;2023-07-22T05:23:47;26.70;99.90
25877;DHT22;13692;47.480;19.216;2023-07-22T05:26:14;26.80;99.90
25877;DHT22;13692;47.480;19.216;2023-07-22T05:28:41;26.80;99.90
25877;DHT22;13692;47.480;19.216;2023-07-22T05:31:08;26.80;99.90
25877;DHT22;13692;47.480;19.216;2023-07-22T05:33:35;27.00;99.90
25877;DHT22;13692;47.480;19.216;2023-07-22T05:36:02;27.10;99.90
25877;DHT22;13692;47.480;19.216;2023-07-22T05:38:29;27.20;99.90
25877;DHT22;13692;47.480;19.216;2023-07-22T05:40:58;27.30;99.90
25877;DHT22;13692;47.480;19.216;2023-07-22T05:43:25;27.20;99.90
25877;DHT22;13692;47.480;19.216;2023-07-22T05:45:52;27.30;99.90
25877;DHT22;13692;47.480;19.216;2023-07-22T05:48:19;27.70;99.90
25877;DHT22;13692;47.480;19.216;2023-07-22T05:50:48;28.00;99.90
25877;DHT22;13692;47.480;19.216;2023-07-22T05:53:15;28.10;99.90
25877;DHT22;13692;47.480;19.216;2023-07-22T05:55:42;28.10;99.90
25877;DHT22;13692;47.480;19.216;2023-07-22T05:58:19;28.40;99.90
25877;DHT22;13692;47.480;19.216;2023-07-22T06:00:46;28.40;99.90
25877;DHT22;13692;47.480;19.216;2023-07-22T06:03:20;28.20;99.90
25877;DHT22;13692;47.480;19.216;2023-07-22T06:05:47;27.80;99.90
25877;DHT22;13692;47.480;19.216;2023-07-22T06:08:14;27.80;99.90
25877;DHT22;13692;47.480;19.216;2023-07-22T06:10:41;27.90;99.90
25877;DHT22;13692;47.480;19.216;2023-07-22T06:13:08;27.70;99.90
25877;DHT22;13692;47.480;19.216;2023-07-22T06:15:35;28.00;99.90
25877;DHT22;13692;47.480;19.216;2023-07-22T06:18:02;28.10;99.90
25877;DHT22;13692;47.480;19.216;2023-07-22T06:20:30;28.60;99.90
25877;DHT22;13692;47.480;19.216;2023-07-22T06:22:56;28.70;99.90
25877;DHT22;13692;47.480;19.216;2023-07-22T06:25:23;28.90;99.90
25877;DHT22;13692;47.480;19.216;2023-07-22T06:27:51;29.20;99.90
25877;DHT22;13692;47.480;19.216;2023-07-22T06:30:21;29.50;99.90
25877;DHT22;13692;47.480;19.216;2023-07-22T06:32:48;29.90;99.90
25877;DHT22;13692;47.480;19.216;2023-07-22T06:35:15;29.90;99.90
25877;DHT22;13692;47.480;19.216;2023-07-22T06:37:41;30.00;99.90
25877;DHT22;13692;47.480;19.216;2023-07-22T06:40:09;30.00;99.90
25877;DHT22;13692;47.480;19.216;2023-07-22T06:42:36;29.90;99.90
25877;DHT22;13692;47.480;19.216;2023-07-22T06:45:06;30.30;99.90
25877;DHT22;13692;47.480;19.216;2023-07-22T06:47:33;30.50;99.90
25877;DHT22;13692;47.480;19.216;2023-07-22T06:50:02;30.80;99.90
25877;DHT22;13692;47.480;19.216;2023-07-22T06:52:31;30.90;99.90
25877;DHT22;13692;47.480;19.216;2023-07-22T06:54:59;30.90;99.90
25877;DHT22;13692;47.480;19.216;2023-07-22T06:57:26;31.10;99.90
25877;DHT22;13692;47.480;19.216;2023-07-22T06:59:56;31.20;99.90
25877;DHT22;13692;47.480;19.216;2023-07-22T07:02:23;31.30;99.90
25877;DHT22;13692;47.480;19.216;2023-07-22T07:04:50;31.40;99.60
25877;DHT22;13692;47.480;19.216;2023-07-22T07:07:17;31.60;98.70
25877;DHT22;13692;47.480;19.216;2023-07-22T07:09:44;31.80;98.20
25877;DHT22;13692;47.480;19.216;2023-07-22T07:12:11;31.90;98.30
25877;DHT22;13692;47.480;19.216;2023-07-22T07:14:38;31.90;98.50
25877;DHT22;13692;47.480;19.216;2023-07-22T07:17:05;31.80;98.30
25877;DHT22;13692;47.480;19.216;2023-07-22T07:19:32;31.70;97.50
25877;DHT22;13692;47.480;19.216;2023-07-22T07:21:59;31.80;97.70
25877;DHT22;13692;47.480;19.216;2023-07-22T07:24:26;32.00;98.00
25877;DHT22;13692;47.480;19.216;2023-07-22T07:26:54;32.10;96.90
25877;DHT22;13692;47.480;19.216;2023-07-22T07:29:21;32.10;97.00
25877;DHT22;13692;47.480;19.216;2023-07-22T07:32:08;31.90;97.30
25877;DHT22;13692;47.480;19.216;2023-07-22T07:34:35;31.60;97.10
25877;DHT22;13692;47.480;19.216;2023-07-22T07:37:02;31.40;97.90
25877;DHT22;13692;47.480;19.216;2023-07-22T07:39:29;31.70;97.50
25877;DHT22;13692;47.480;19.216;2023-07-22T07:41:56;31.90;97.20
25877;DHT22;13692;47.480;19.216;2023-07-22T07:44:23;31.90;96.50
25877;DHT22;13692;47.480;19.216;2023-07-22T07:46:50;31.80;96.40
25877;DHT22;13692;47.480;19.216;2023-07-22T07:49:17;32.00;96.40
25877;DHT22;13692;47.480;19.216;2023-07-22T07:51:44;32.20;96.40
25877;DHT22;13692;47.480;19.216;2023-07-22T07:54:11;32.20;96.90
25877;DHT22;13692;47.480;19.216;2023-07-22T07:56:38;32.30;96.20
25877;DHT22;13692;47.480;19.216;2023-07-22T07:59:05;32.50;96.70
25877;DHT22;13692;47.480;19.216;2023-07-22T08:01:35;32.60;95.90
25877;DHT22;13692;47.480;19.216;2023-07-22T08:04:04;32.70;95.30
25877;DHT22;13692;47.480;19.216;2023-07-22T08:06:31;32.70;94.90
25877;DHT22;13692;47.480;19.216;2023-07-22T08:08:58;32.80;95.10
25877;DHT22;13692;47.480;19.216;2023-07-22T08:11:25;32.80;95.10
25877;DHT22;13692;47.480;19.216;2023-07-22T08:13:52;32.80;94.50
25877;DHT22;13692;47.480;19.216;2023-07-22T08:16:19;32.90;94.20
25877;DHT22;13692;47.480;19.216;2023-07-22T08:18:46;33.10;95.00
25877;DHT22;13692;47.480;19.216;2023-07-22T08:21:14;33.20;93.80
25877;DHT22;13692;47.480;19.216;2023-07-22T08:23:41;33.10;94.30
25877;DHT22;13692;47.480;19.216;2023-07-22T08:26:08;33.20;93.60
25877;DHT22;13692;47.480;19.216;2023-07-22T08:28:35;33.30;92.90
25877;DHT22;13692;47.480;19.216;2023-07-22T08:31:02;33.40;92.50
25877;DHT22;13692;47.480;19.216;2023-07-22T08:33:30;33.40;93.10
25877;DHT22;13692;47.480;19.216;2023-07-22T08:36:08;33.40;92.90
25877;DHT22;13692;47.480;19.216;2023-07-22T08:38:36;33.40;92.00
25877;DHT22;13692;47.480;19.216;2023-07-22T08:41:03;33.50;92.10
25877;DHT22;13692;47.480;19.216;2023-07-22T08:43:30;33.60;91.90
25877;DHT22;13692;47.480;19.216;2023-07-22T08:46:00;33.50;91.50
25877;DHT22;13692;47.480;19.216;2023-07-22T08:48:30;33.60;91.50
25877;DHT22;13692;47.480;19.216;2023-07-22T08:51:18;33.70;90.20
25877;DHT22;13692;47.480;19.216;2023-07-22T08:53:47;33.70;90.00
25877;DHT22;13692;47.480;19.216;2023-07-22T08:56:34;33.80;89.60
25877;DHT22;13692;47.480;19.216;2023-07-22T08:59:03;33.80;89.90
25877;DHT22;13692;47.480;19.216;2023-07-22T09:01:32;33.90;88.40
25877;DHT22;13692;47.480;19.216;2023-07-22T09:04:00;34.00;87.80
25877;DHT22;13692;47.480;19.216;2023-07-22T09:06:27;34.10;87.60
25877;DHT22;13692;47.480;19.216;2023-07-22T09:08:55;34.10;87.00
25877;DHT22;13692;47.480;19.216;2023-07-22T09:11:24;34.00;85.20
25877;DHT22;13692;47.480;19.216;2023-07-22T09:13:53;33.70;85.30
25877;DHT22;13692;47.480;19.216;2023-07-22T09:16:20;33.60;84.40
25877;DHT22;13692;47.480;19.216;2023-07-22T09:18:48;33.40;85.20
25877;DHT22;13692;47.480;19.216;2023-07-22T09:21:15;33.50;86.40
25877;DHT22;13692;47.480;19.216;2023-07-22T09:23:41;33.80;86.10
25877;DHT22;13692;47.480;19.216;2023-07-22T09:31:16;33.90;83.10
25877;DHT22;13692;47.480;19.216;2023-07-22T09:33:43;34.00;82.70
25877;DHT22;13692;47.480;19.216;2023-07-22T09:36:11;33.80;79.90
25877;DHT22;13692;47.480;19.216;2023-07-22T09:38:38;33.60;80.40
25877;DHT22;13692;47.480;19.216;2023-07-22T09:41:05;33.70;80.90
25877;DHT22;13692;47.480;19.216;2023-07-22T09:43:36;33.50;80.50
25877;DHT22;13692;47.480;19.216;2023-07-22T09:46:11;33.50;79.90
25877;DHT22;13692;47.480;19.216;2023-07-22T09:48:43;33.40;79.20
25877;DHT22;13692;47.480;19.216;2023-07-22T09:51:15;33.20;78.00
25877;DHT22;13692;47.480;19.216;2023-07-22T09:53:47;33.10;78.60
25877;DHT22;13692;47.480;19.216;2023-07-22T09:56:14;33.00;76.90
25877;DHT22;13692;47.480;19.216;2023-07-22T09:58:43;32.90;78.90
25877;DHT22;13692;47.480;19.216;2023-07-22T10:01:12;32.80;78.90
25877;DHT22;13692;47.480;19.216;2023-07-22T10:03:43;32.80;78.20
25877;DHT22;13692;47.480;19.216;2023-07-22T10:06:13;32.80;78.00
25877;DHT22;13692;47.480;19.216;2023-07-22T10:08:44;32.70;78.90
25877;DHT22;13692;47.480;19.216;2023-07-22T10:11:13;32.70;80.10
25877;DHT22;13692;47.480;19.216;2023-07-22T10:13:41;32.80;80.50
25877;DHT22;13692;47.480;19.216;2023-07-22T10:16:09;32.70;78.90
25877;DHT22;13692;47.480;19.216;2023-07-22T10:18:36;32.60;77.70
25877;DHT22;13692;47.480;19.216;2023-07-22T10:21:04;32.40;79.50
25877;DHT22;13692;47.480;19.216;2023-07-22T10:23:32;32.20;80.20
25877;DHT22;13692;47.480;19.216;2023-07-22T10:25:59;32.20;82.50
25877;DHT22;13692;47.480;19.216;2023-07-22T10:28:26;32.00;81.60
25877;DHT22;13692;47.480;19.216;2023-07-22T10:30:55;31.90;82.40
25877;DHT22;13692;47.480;19.216;2023-07-22T10:33:24;31.60;81.20
25877;DHT22;13692;47.480;19.216;2023-07-22T10:36:04;31.40;81.40
25877;DHT22;13692;47.480;19.216;2023-07-22T10:38:32;31.20;82.00
25877;DHT22;13692;47.480;19.216;2023-07-22T10:40:59;31.30;82.20
25877;DHT22;13692;47.480;19.216;2023-07-22T10:43:35;31.00;82.30
25877;DHT22;13692;47.480;19.216;2023-07-22T10:46:12;30.80;83.30
25877;DHT22;13692;47.480;19.216;2023-07-22T10:48:40;30.90;83.10
25877;DHT22;13692;47.480;19.216;2023-07-22T10:51:13;30.80;82.90
25877;DHT22;13692;47.480;19.216;2023-07-22T10:53:48;30.70;84.10
25877;DHT22;13692;47.480;19.216;2023-07-22T10:56:24;30.60;82.40
25877;DHT22;13692;47.480;19.216;2023-07-22T10:58:57;30.50;83.10
25877;DHT22;13692;47.480;19.216;2023-07-22T11:11:59;30.00;82.20
25877;DHT22;13692;47.480;19.216;2023-07-22T11:14:29;29.90;82.60
25877;DHT22;13692;47.480;19.216;2023-07-22T11:16:57;29.80;82.80
25877;DHT22;13692;47.480;19.216;2023-07-22T11:19:26;29.70;82.50
25877;DHT22;13692;47.480;19.216;2023-07-22T11:21:54;29.50;80.90
25877;DHT22;13692;47.480;19.216;2023-07-22T11:24:23;29.30;83.00
25877;DHT22;13692;47.480;19.216;2023-07-22T11:26:52;29.50;83.80
25877;DHT22;13692;47.480;19.216;2023-07-22T11:29:19;29.30;82.50
25877;DHT22;13692;47.480;19.216;2023-07-22T11:31:49;29.40;83.10
25877;DHT22;13692;47.480;19.216;2023-07-22T11:36:45;29.40;83.20
25877;DHT22;13692;47.480;19.216;2023-07-22T11:39:14;29.50;82.50
25877;DHT22;13692;47.480;19.216;2023-07-22T11:41:42;29.30;80.80
25877;DHT22;13692;47.480;19.216;2023-07-22T11:44:14;29.20;81.60
25877;DHT22;13692;47.480;19.216;2023-07-22T11:46:59;29.10;83.20
25877;DHT22;13692;47.480;19.216;2023-07-22T11:49:28;29.10;84.00
25877;DHT22;13692;47.480;19.216;2023-07-22T11:52:01;29.00;82.20
25877;DHT22;13692;47.480;19.216;2023-07-22T11:54:30;28.90;83.30
25877;DHT22;13692;47.480;19.216;2023-07-22T11:56:57;28.80;82.50
25877;DHT22;13692;47.480;19.216;2023-07-22T11:59:38;28.80;83.10
25877;DHT22;13692;47.480;19.216;2023-07-22T12:02:06;28.80;83.00
25877;DHT22;13692;47.480;19.216;2023-07-22T12:04:33;28.80;81.90
25877;DHT22;13692;47.480;19.216;2023-07-22T12:07:02;28.70;80.80
25877;DHT22;13692;47.480;19.216;2023-07-22T12:09:31;28.60;79.00
25877;DHT22;13692;47.480;19.216;2023-07-22T12:11:59;28.50;80.80
25877;DHT22;13692;47.480;19.216;2023-07-22T12:14:33;28.50;81.40
25877;DHT22;13692;47.480;19.216;2023-07-22T12:17:08;28.60;80.70
25877;DHT22;13692;47.480;19.216;2023-07-22T12:19:36;28.50;81.60
25877;DHT22;13692;47.480;19.216;2023-07-22T12:22:03;28.60;81.80
25877;DHT22;13692;47.480;19.216;2023-07-22T12:24:30;28.60;80.00
25877;DHT22;13692;47.480;19.216;2023-07-22T12:26:57;28.70;81.40
25877;DHT22;13692;47.480;19.216;2023-07-22T12:29:24;28.70;79.80
25877;DHT22;13692;47.480;19.216;2023-07-22T12:31:52;28.80;80.80
25877;DHT22;13692;47.480;19.216;2023-07-22T12:34:19;28.90;79.70
25877;DHT22;13692;47.480;19.216;2023-07-22T12:36:46;28.90;77.40
25877;DHT22;13692;47.480;19.216;2023-07-22T12:39:13;28.80;78.30
25877;DHT22;13692;47.480;19.216;2023-07-22T12:41:40;28.80;78.40
25877;DHT22;13692;47.480;19.216;2023-07-22T12:44:07;28.80;77.30
25877;DHT22;13692;47.480;19.216;2023-07-22T12:46:34;28.90;78.50
25877;DHT22;13692;47.480;19.216;2023-07-22T12:49:01;28.90;78.10
25877;DHT22;13692;47.480;19.216;2023-07-22T12:51:28;29.00;76.90
25877;DHT22;13692;47.480;19.216;2023-07-22T12:53:55;29.00;77.90
25877;DHT22;13692;47.480;19.216;2023-07-22T12:56:22;29.10;79.30
25877;DHT22;13692;47.480;19.216;2023-07-22T12:58:49;29.10;77.40
25877;DHT22;13692;47.480;19.216;2023-07-22T13:01:16;29.00;76.10
25877;DHT22;13692;47.480;19.216;2023-07-22T13:03:43;28.90;77.90
25877;DHT22;13692;47.480;19.216;2023-07-22T13:06:11;28.90;76.10
25877;DHT22;13692;47.480;19.216;2023-07-22T13:08:38;29.00;76.80
25877;DHT22;13692;47.480;19.216;2023-07-22T13:11:05;29.00;74.30
25877;DHT22;13692;47.480;19.216;2023-07-22T13:13:32;29.10;75.60
25877;DHT22;13692;47.480;19.216;2023-07-22T13:15:59;29.00;75.60
25877;DHT22;13692;47.480;19.216;2023-07-22T13:18:26;29.10;78.00
25877;DHT22;13692;47.480;19.216;2023-07-22T13:20:53;29.10;76.90
25877;DHT22;13692;47.480;19.216;2023-07-22T13:23:20;29.20;75.40
25877;DHT22;13692;47.480;19.216;2023-07-22T13:25:47;29.10;74.40
25877;DHT22;13692;47.480;19.216;2023-07-22T13:28:14;29.10;75.40
25877;DHT22;13692;47.480;19.216;2023-07-22T13:30:41;29.00;76.60
25877;DHT22;13692;47.480;19.216;2023-07-22T13:33:08;28.90;76.70
25877;DHT22;13692;47.480;19.216;2023-07-22T13:35:36;28.90;75.30
25877;DHT22;13692;47.480;19.216;2023-07-22T13:38:03;28.90;75.00
25877;DHT22;13692;47.480;19.216;2023-07-22T13:40:30;28.90;73.80
25877;DHT22;13692;47.480;19.216;2023-07-22T13:42:57;28.80;75.30
25877;DHT22;13692;47.480;19.216;2023-07-22T13:45:24;28.80;76.50
25877;DHT22;13692;47.480;19.216;2023-07-22T13:47:51;28.90;76.70
25877;DHT22;13692;47.480;19.216;2023-07-22T13:50:18;28.90;76.30
25877;DHT22;13692;47.480;19.216;2023-07-22T13:52:45;28.90;76.30
25877;DHT22;13692;47.480;19.216;2023-07-22T13:55:12;28.80;76.60
25877;DHT22;13692;47.480;19.216;2023-07-22T13:57:39;28.90;75.50
25877;DHT22;13692;47.480;19.216;2023-07-22T14:00:07;28.90;73.30
25877;DHT22;13692;47.480;19.216;2023-07-22T14:02:35;28.90;74.20
25877;DHT22;13692;47.480;19.216;2023-07-22T14:05:02;29.00;72.50
25877;DHT22;13692;47.480;19.216;2023-07-22T14:07:30;28.90;73.70
25877;DHT22;13692;47.480;19.216;2023-07-22T14:09:57;28.90;72.50
25877;DHT22;13692;47.480;19.216;2023-07-22T14:12:23;28.90;72.80
25877;DHT22;13692;47.480;19.216;2023-07-22T14:14:50;28.80;72.80
25877;DHT22;13692;47.480;19.216;2023-07-22T14:17:17;28.80;74.20
25877;DHT22;13692;47.480;19.216;2023-07-22T14:19:44;28.80;72.90
25877;DHT22;13692;47.480;19.216;2023-07-22T14:22:11;28.70;70.60
25877;DHT22;13692;47.480;19.216;2023-07-22T14:24:38;28.70;70.60
25877;DHT22;13692;47.480;19.216;2023-07-22T14:27:06;28.70;71.10
25877;DHT22;13692;47.480;19.216;2023-07-22T14:29:33;28.70;73.10
25877;DHT22;13692;47.480;19.216;2023-07-22T14:32:00;28.70;73.40
25877;DHT22;13692;47.480;19.216;2023-07-22T14:34:27;28.60;73.20
25877;DHT22;13692;47.480;19.216;2023-07-22T14:36:54;28.60;73.50
25877;DHT22;13692;47.480;19.216;2023-07-22T14:39:21;28.70;74.20
25877;DHT22;13692;47.480;19.216;2023-07-22T14:41:48;28.60;75.40
25877;DHT22;13692;47.480;19.216;2023-07-22T14:44:16;28.60;74.20
25877;DHT22;13692;47.480;19.216;2023-07-22T14:46:43;28.50;74.60
25877;DHT22;13692;47.480;19.216;2023-07-22T14:49:10;28.50;75.10
25877;DHT22;13692;47.480;19.216;2023-07-22T14:51:37;28.50;75.50
25877;DHT22;13692;47.480;19.216;2023-07-22T14:54:04;28.50;75.90
25877;DHT22;13692;47.480;19.216;2023-07-22T14:56:31;28.50;76.20
25877;DHT22;13692;47.480;19.216;2023-07-22T14:58:58;28.40;74.80
25877;DHT22;13692;47.480;19.216;2023-07-22T15:01:25;28.40;75.30
25877;DHT22;13692;47.480;19.216;2023-07-22T15:03:53;28.30;75.10
25877;DHT22;13692;47.480;19.216;2023-07-22T15:06:22;28.30;75.00
25877;DHT22;13692;47.480;19.216;2023-07-22T15:08:49;28.30;74.90
25877;DHT22;13692;47.480;19.216;2023-07-22T15:11:16;28.30;74.40
25877;DHT22;13692;47.480;19.216;2023-07-22T15:13:43;28.20;74.90
25877;DHT22;13692;47.480;19.216;2023-07-22T15:16:10;28.20;75.20
25877;DHT22;13692;47.480;19.216;2023-07-22T15:18:37;28.20;74.20
25877;DHT22;13692;47.480;19.216;2023-07-22T15:21:04;28.30;74.00
25877;DHT22;13692;47.480;19.216;2023-07-22T15:23:31;28.30;73.60
25877;DHT22;13692;47.480;19.216;2023-07-22T15:25:58;28.30;73.20
25877;DHT22;13692;47.480;19.216;2023-07-22T15:28:26;28.30;73.40
25877;DHT22;13692;47.480;19.216;2023-07-22T15:30:53;28.30;73.80
25877;DHT22;13692;47.480;19.216;2023-07-22T15:33:21;28.20;73.60
25877;DHT22;13692;47.480;19.216;2023-07-22T15:35:48;28.20;73.30
25877;DHT22;13692;47.480;19.216;2023-07-22T15:38:15;28.20;73.20